createdAt,value
2023-04-12T00:00:04.134Z,1.90
2023-04-12T00:02:35.628Z,1.90
2023-04-12T00:05:03.116Z,2.30
2023-04-12T00:07:30.069Z,1.98
2023-04-12T00:09:56.757Z,1.70
2023-04-12T00:12:23.408Z,1.55
2023-04-12T00:14:49.818Z,1.75
2023-04-12T00:17:16.325Z,2.08
2023-04-12T00:19:43.039Z,1.60
2023-04-12T00:22:10.121Z,1.60
2023-04-12T00:24:40.065Z,1.70
2023-04-12T00:27:07.850Z,1.70
2023-04-12T00:29:36.024Z,1.92
2023-04-12T00:32:03.801Z,1.85
2023-04-12T00:34:30.716Z,2.00
2023-04-12T00:36:57.099Z,1.42
2023-04-12T00:39:23.724Z,2.55
2023-04-12T00:41:50.632Z,2.00
2023-04-12T00:44:18.236Z,2.25
2023-04-12T00:46:47.874Z,1.80
2023-04-12T00:49:15.429Z,2.42
2023-04-12T00:51:43.422Z,2.35
2023-04-12T00:54:11.022Z,2.08
2023-04-12T00:56:40.181Z,1.60
2023-04-12T00:59:07.598Z,2.03
2023-04-12T01:01:34.027Z,2.03
2023-04-12T01:04:01.009Z,1.70
2023-04-12T01:06:48.769Z,1.65
2023-04-12T01:09:20.525Z,2.22
2023-04-12T01:12:24.797Z,2.00
2023-04-12T01:15:09.422Z,1.90
2023-04-12T01:17:57.955Z,1.88
2023-04-12T01:20:29.064Z,2.10
2023-04-12T01:23:25.553Z,2.40
2023-04-12T01:26:09.732Z,2.08
2023-04-12T01:28:41.151Z,2.08
2023-04-12T01:31:08.694Z,2.30
2023-04-12T01:33:39.352Z,2.20
2023-04-12T01:36:13.854Z,2.58
2023-04-12T01:38:41.892Z,2.20
2023-04-12T01:41:08.513Z,2.42
2023-04-12T01:43:43.718Z,2.90
2023-04-12T01:46:12.842Z,2.53
2023-04-12T01:48:39.489Z,1.90
2023-04-12T01:51:08.734Z,1.88
2023-04-12T01:53:54.582Z,2.05
2023-04-12T01:56:22.679Z,1.83
2023-04-12T01:58:53.352Z,1.70
2023-04-12T02:01:19.988Z,1.70
2023-04-12T02:03:51.654Z,1.92
2023-04-12T02:06:22.566Z,2.17
2023-04-12T02:08:58.754Z,1.95
2023-04-12T02:11:25.233Z,2.40
2023-04-12T02:13:51.627Z,1.90
2023-04-12T02:16:20.376Z,2.10
2023-04-12T02:18:47.468Z,1.85
2023-04-12T02:21:14.803Z,2.30
2023-04-12T02:23:41.859Z,2.58
2023-04-12T02:26:08.282Z,2.42
2023-04-12T02:28:34.855Z,2.40
2023-04-12T02:31:01.895Z,2.30
2023-04-12T02:33:30.638Z,2.55
2023-04-12T02:36:02.369Z,2.10
2023-04-12T02:38:30.101Z,2.28
2023-04-12T02:41:01.375Z,1.58
2023-04-12T02:43:28.466Z,2.20
2023-04-12T02:46:01.469Z,1.90
2023-04-12T02:48:29.743Z,2.00
2023-04-12T02:50:56.666Z,1.80
2023-04-12T02:53:25.186Z,1.75
2023-04-12T02:56:10.939Z,1.50
2023-04-12T02:58:37.656Z,1.70
2023-04-12T03:01:07.812Z,1.48
2023-04-12T03:03:50.162Z,1.67
2023-04-12T03:06:34.962Z,1.85
2023-04-12T03:09:01.753Z,1.77
2023-04-12T03:11:28.708Z,1.98
2023-04-12T03:13:56.211Z,2.15
2023-04-12T03:16:25.425Z,2.05
2023-04-12T03:19:03.546Z,3.03
2023-04-12T03:21:30.981Z,3.38
2023-04-12T03:23:58.239Z,3.05
2023-04-12T03:26:26.478Z,3.08
2023-04-12T03:29:11.181Z,3.30
2023-04-12T03:31:39.598Z,3.55
2023-04-12T03:34:08.191Z,3.58
2023-04-12T03:36:38.047Z,3.50
2023-04-12T03:39:16.950Z,3.80
2023-04-12T03:41:45.379Z,3.97
2023-04-12T03:44:12.343Z,3.92
2023-04-12T03:46:38.923Z,3.88
2023-04-12T03:49:09.615Z,3.63
2023-04-12T03:51:36.503Z,3.83
2023-04-12T03:54:04.355Z,4.07
2023-04-12T03:56:40.023Z,3.78
2023-04-12T03:59:12.272Z,2.90
2023-04-12T04:01:39.618Z,4.00
2023-04-12T04:04:07.235Z,3.00
2023-04-12T04:06:34.625Z,3.75
2023-04-12T04:09:01.397Z,4.40
2023-04-12T04:11:29.544Z,4.38
2023-04-12T04:14:03.907Z,4.82
2023-04-12T04:16:31.183Z,4.65
2023-04-12T04:18:59.314Z,3.67
2023-04-12T04:21:26.668Z,4.60
2023-04-12T04:23:58.534Z,4.85
2023-04-12T04:26:33.044Z,4.57
2023-04-12T04:29:07.391Z,4.18
2023-04-12T04:31:37.643Z,3.67
2023-04-12T04:34:06.571Z,2.90
2023-04-12T04:36:38.068Z,3.35
2023-04-12T04:39:05.805Z,2.97
2023-04-12T04:41:43.169Z,3.97
2023-04-12T04:44:29.180Z,3.42
2023-04-12T04:46:59.019Z,2.90
2023-04-12T04:49:25.452Z,2.65
2023-04-12T04:51:52.316Z,2.47
2023-04-12T04:54:20.474Z,2.80
2023-04-12T04:56:46.828Z,2.30
2023-04-12T04:59:17.523Z,2.10
2023-04-12T05:01:44.299Z,2.58
2023-04-12T05:04:11.022Z,2.95
2023-04-12T05:06:37.509Z,2.78
2023-04-12T05:09:06.233Z,2.80
2023-04-12T05:11:38.269Z,2.30
2023-04-12T05:14:12.000Z,2.70
2023-04-12T05:16:39.374Z,2.95
2023-04-12T05:19:07.170Z,2.70
2023-04-12T05:21:34.626Z,3.17
2023-04-12T05:24:01.384Z,3.10
2023-04-12T05:26:28.927Z,3.00
2023-04-12T05:28:57.146Z,2.53
2023-04-12T05:31:24.690Z,3.30
2023-04-12T05:33:53.952Z,3.22
2023-04-12T05:36:24.883Z,3.47
2023-04-12T05:38:52.212Z,3.15
2023-04-12T05:41:18.646Z,3.60
2023-04-12T05:43:46.748Z,4.30
2023-04-12T05:46:14.368Z,4.65
2023-04-12T05:48:44.041Z,4.50
2023-04-12T05:51:10.759Z,4.40
2023-04-12T05:53:37.994Z,4.03
2023-04-12T05:56:06.691Z,4.25
2023-04-12T05:58:34.086Z,4.63
2023-04-12T06:01:00.950Z,4.68
2023-04-12T06:03:30.170Z,4.40
2023-04-12T06:08:29.410Z,4.45
2023-04-12T06:10:55.936Z,3.55
2023-04-12T06:13:23.019Z,4.32
2023-04-12T06:15:49.534Z,4.10
2023-04-12T06:18:16.725Z,3.90
2023-04-12T06:20:45.321Z,3.80
2023-04-12T06:23:12.837Z,3.55
2023-04-12T06:25:39.530Z,3.75
2023-04-12T06:28:06.166Z,3.58
2023-04-12T06:30:40.409Z,3.95
2023-04-12T06:33:07.371Z,3.70
2023-04-12T06:35:34.321Z,4.10
2023-04-12T06:38:02.076Z,3.70
2023-04-12T06:40:28.586Z,3.80
2023-04-12T06:42:55.378Z,3.17
2023-04-12T06:45:22.775Z,3.50
2023-04-12T06:47:49.296Z,3.20
2023-04-12T06:50:15.785Z,2.72
2023-04-12T06:52:42.161Z,3.20
2023-04-12T06:55:08.976Z,3.10
2023-04-12T06:57:35.444Z,3.10
2023-04-12T07:00:03.368Z,3.10
2023-04-12T07:02:29.838Z,2.92
2023-04-12T07:04:56.353Z,3.00
2023-04-12T07:07:22.814Z,3.00
2023-04-12T07:09:49.246Z,3.10
2023-04-12T07:12:16.124Z,2.88
2023-04-12T07:14:44.620Z,3.25
2023-04-12T07:17:11.779Z,3.40
2023-04-12T07:19:39.281Z,3.22
2023-04-12T07:22:05.798Z,3.20
2023-04-12T07:24:32.170Z,3.38
2023-04-12T07:26:58.597Z,3.15
2023-04-12T07:29:25.437Z,3.25
2023-04-12T07:31:51.877Z,3.70
2023-04-12T07:34:18.684Z,3.22
2023-04-12T07:36:45.387Z,3.58
2023-04-12T07:39:12.913Z,2.97
2023-04-12T07:41:39.558Z,4.00
2023-04-12T07:44:06.228Z,3.60
2023-04-12T07:46:32.842Z,3.40
2023-04-12T07:48:59.537Z,3.42
2023-04-12T07:51:26.774Z,3.20
2023-04-12T07:53:53.231Z,3.40
2023-04-12T07:56:19.589Z,3.63
2023-04-12T07:58:45.960Z,2.90
2023-04-12T08:01:13.239Z,3.35
2023-04-12T08:03:40.004Z,3.50
2023-04-12T08:06:07.784Z,3.80
2023-04-12T08:08:34.315Z,3.15
2023-04-12T08:11:02.866Z,3.83
2023-04-12T08:13:29.310Z,3.67
2023-04-12T08:15:55.803Z,3.95
2023-04-12T08:18:22.225Z,4.07
2023-04-12T08:20:49.170Z,4.07
2023-04-12T08:23:16.313Z,4.35
2023-04-12T08:25:42.724Z,4.45
2023-04-12T08:28:09.124Z,4.82
2023-04-12T08:30:35.752Z,4.65
2023-04-12T08:33:02.938Z,4.32
2023-04-12T08:35:29.580Z,4.95
2023-04-12T08:37:56.088Z,5.15
2023-04-12T08:40:22.751Z,5.40
2023-04-12T08:42:50.062Z,5.45
2023-04-12T08:45:16.489Z,5.32
2023-04-12T08:47:44.471Z,6.15
2023-04-12T08:50:15.794Z,6.10
2023-04-12T08:52:42.843Z,6.57
2023-04-12T08:55:11.100Z,7.28
2023-04-12T08:57:40.972Z,8.82
2023-04-12T09:00:09.199Z,8.00
2023-04-12T09:02:37.380Z,7.22
2023-04-12T09:05:06.528Z,7.05
2023-04-12T09:07:33.499Z,7.85
2023-04-12T09:09:59.886Z,8.50
2023-04-12T09:12:27.071Z,10.20
2023-04-12T09:15:13.914Z,8.70
2023-04-12T09:17:41.931Z,6.68
2023-04-12T09:20:17.749Z,6.72
2023-04-12T09:22:46.185Z,6.30
2023-04-12T09:25:13.846Z,5.65
2023-04-12T09:27:49.901Z,4.97
2023-04-12T09:30:17.859Z,6.03
2023-04-12T09:32:45.007Z,5.10
2023-04-12T09:35:11.976Z,3.95
2023-04-12T09:37:39.123Z,4.43
2023-04-12T09:40:07.824Z,4.30
2023-04-12T09:42:35.821Z,3.80
2023-04-12T09:45:20.725Z,3.97
2023-04-12T09:47:47.547Z,3.20
2023-04-12T09:50:28.915Z,2.67
2023-04-12T09:52:57.656Z,2.60
2023-04-12T09:55:26.677Z,3.20
2023-04-12T09:57:54.593Z,3.63
2023-04-12T10:00:26.760Z,3.53
2023-04-12T10:02:55.639Z,3.13
2023-04-12T10:05:25.598Z,3.00
2023-04-12T10:07:53.145Z,2.30
2023-04-12T10:10:21.132Z,2.30
2023-04-12T10:12:49.191Z,2.20
2023-04-12T10:15:17.890Z,2.25
2023-04-12T10:17:53.520Z,1.80
2023-04-12T10:20:21.954Z,1.40
2023-04-12T10:22:50.841Z,1.13
2023-04-12T10:25:20.620Z,1.42
2023-04-12T10:27:47.927Z,1.42
2023-04-12T10:30:31.568Z,1.58
2023-04-12T10:33:04.086Z,1.77
2023-04-12T10:35:48.546Z,1.63
2023-04-12T10:38:15.669Z,1.70
2023-04-12T10:41:06.800Z,2.45
2023-04-12T10:43:33.274Z,2.40
2023-04-12T10:46:04.268Z,2.00
2023-04-12T10:48:38.499Z,2.42
2023-04-12T10:51:26.541Z,2.30
2023-04-12T10:54:17.627Z,2.42
2023-04-12T10:56:46.218Z,2.55
2023-04-12T10:59:28.922Z,2.50
2023-04-12T11:02:13.573Z,2.60
2023-04-12T11:05:21.070Z,2.50
2023-04-12T11:08:06.895Z,3.28
2023-04-12T11:10:39.352Z,2.50
2023-04-12T11:13:08.965Z,2.70
2023-04-12T11:15:38.692Z,3.17
2023-04-12T11:18:11.552Z,3.17
2023-04-12T11:20:40.670Z,2.28
2023-04-12T11:23:10.625Z,2.65
2023-04-12T11:25:37.843Z,2.50
2023-04-12T11:28:08.936Z,2.22
2023-04-12T11:30:53.005Z,2.83
2023-04-12T11:33:41.576Z,2.13
2023-04-12T11:36:12.954Z,2.13
2023-04-12T11:38:39.952Z,2.63
2023-04-12T11:41:08.494Z,2.83
2023-04-12T11:43:36.145Z,2.63
2023-04-12T11:46:03.115Z,2.58
2023-04-12T11:48:29.708Z,2.72
2023-04-12T11:51:10.369Z,1.85
2023-04-12T11:53:37.769Z,2.40
2023-04-12T11:56:04.367Z,2.65
2023-04-12T11:58:31.090Z,2.10
2023-04-12T12:00:58.550Z,1.98
2023-04-12T12:03:25.413Z,2.15
2023-04-12T12:05:52.437Z,2.20
2023-04-12T12:08:19.661Z,1.92
2023-04-12T12:13:19.209Z,1.90
2023-04-12T12:15:46.116Z,2.25
2023-04-12T12:18:12.989Z,1.35
2023-04-12T12:20:41.876Z,1.90
2023-04-12T12:23:08.626Z,1.90
2023-04-12T12:25:35.170Z,1.60
2023-04-12T12:28:05.163Z,1.63
2023-04-12T12:30:32.179Z,1.50
2023-04-12T12:32:58.656Z,1.48
2023-04-12T12:35:25.360Z,1.73
2023-04-12T12:37:55.646Z,1.88
2023-04-12T12:40:31.296Z,1.70
2023-04-12T12:42:57.892Z,1.70
2023-04-12T12:45:29.083Z,1.55
2023-04-12T12:47:58.873Z,1.83
2023-04-12T12:50:30.662Z,2.30
2023-04-12T12:53:00.500Z,2.63
2023-04-12T12:55:27.806Z,2.03
2023-04-12T12:58:07.334Z,2.10
2023-04-12T13:00:35.144Z,2.20
2023-04-12T13:03:02.045Z,2.42
2023-04-12T13:05:29.120Z,1.80
2023-04-12T13:07:55.545Z,2.80
2023-04-12T13:10:23.347Z,2.38
2023-04-12T13:12:49.726Z,2.60
2023-04-12T13:17:45.843Z,2.83
2023-04-12T13:20:12.378Z,2.97
2023-04-12T13:22:38.755Z,2.40
2023-04-12T13:25:05.616Z,2.95
2023-04-12T13:27:32.286Z,3.30
2023-04-12T13:29:59.422Z,2.92
2023-04-12T13:32:25.949Z,3.42
2023-04-12T13:34:52.443Z,3.15
2023-04-12T13:37:18.837Z,3.55
2023-04-12T13:39:45.518Z,3.25
2023-04-12T13:42:11.955Z,2.80
2023-04-12T13:44:38.439Z,3.60
2023-04-12T13:47:04.887Z,3.63
2023-04-12T13:49:31.303Z,3.47
2023-04-12T13:51:57.801Z,4.25
2023-04-12T13:54:24.250Z,3.45
2023-04-12T13:56:51.109Z,2.92
2023-04-12T13:59:17.710Z,5.03
2023-04-12T14:01:44.319Z,3.05
2023-04-12T14:04:11.091Z,3.15
2023-04-12T14:06:38.624Z,3.33
2023-04-12T14:09:08.782Z,3.92
2023-04-12T14:11:49.229Z,3.08
2023-04-12T14:14:16.828Z,3.88
2023-04-12T14:16:44.613Z,4.20
2023-04-12T14:19:11.238Z,3.40
2023-04-12T14:21:37.645Z,2.92
2023-04-12T14:24:04.224Z,3.40
2023-04-12T14:26:30.731Z,3.83
2023-04-12T14:28:57.688Z,2.67
2023-04-12T14:31:24.248Z,2.92
2023-04-12T14:33:50.863Z,3.00
2023-04-12T14:36:17.300Z,3.40
2023-04-12T14:38:45.122Z,2.95
2023-04-12T14:41:12.282Z,2.63
2023-04-12T14:43:38.669Z,2.92
2023-04-12T14:46:05.924Z,2.38
2023-04-12T14:48:32.444Z,2.63
2023-04-12T14:50:58.954Z,2.67
2023-04-12T14:53:25.414Z,2.38
2023-04-12T14:55:52.076Z,2.50
2023-04-12T14:58:19.543Z,2.28
2023-04-12T15:00:46.412Z,3.10
2023-04-12T15:03:13.794Z,2.42
2023-04-12T15:05:41.065Z,1.40
2023-04-12T15:08:07.460Z,0.90
2023-04-12T15:10:34.129Z,0.80
2023-04-12T15:13:00.511Z,0.98
2023-04-12T15:15:27.448Z,0.85
2023-04-12T15:17:54.004Z,0.88
2023-04-12T15:20:20.528Z,1.00
2023-04-12T15:22:47.004Z,0.98
2023-04-12T15:25:13.428Z,1.00
2023-04-12T15:27:39.872Z,0.90
2023-04-12T15:30:09.603Z,0.80
2023-04-12T15:32:39.819Z,0.73
2023-04-12T15:35:22.765Z,1.02
2023-04-12T15:37:54.744Z,0.90
2023-04-12T15:40:22.520Z,1.02
2023-04-12T15:42:48.949Z,0.73
2023-04-12T15:45:15.336Z,1.00
2023-04-12T15:47:41.900Z,0.93
2023-04-12T15:50:09.557Z,3.30
2023-04-12T15:52:36.206Z,0.98
2023-04-12T15:55:04.982Z,0.82
2023-04-12T15:57:31.533Z,0.70
2023-04-12T15:59:59.313Z,1.40
2023-04-12T16:02:27.627Z,2.60
2023-04-12T16:04:55.903Z,2.40
2023-04-12T16:07:22.661Z,2.75
2023-04-12T16:09:49.330Z,1.77
2023-04-12T16:12:15.889Z,2.13
2023-04-12T16:14:42.268Z,0.98
2023-04-12T16:17:08.696Z,1.13
2023-04-12T16:19:35.183Z,0.90
2023-04-12T16:22:03.363Z,0.95
2023-04-12T16:24:29.841Z,1.00
2023-04-12T16:26:56.346Z,0.73
2023-04-12T16:29:23.974Z,0.63
2023-04-12T16:31:51.547Z,0.90
2023-04-12T16:34:21.661Z,0.95
2023-04-12T16:36:48.239Z,1.02
2023-04-12T16:39:14.780Z,0.93
2023-04-12T16:41:41.510Z,1.20
2023-04-12T16:44:07.944Z,0.80
2023-04-12T16:46:34.355Z,0.90
2023-04-12T16:49:03.640Z,1.00
2023-04-12T16:51:36.841Z,0.80
2023-04-12T16:54:03.824Z,0.85
2023-04-12T16:56:30.525Z,1.10
2023-04-12T16:58:56.970Z,1.15
2023-04-12T17:01:23.429Z,0.70
2023-04-12T17:03:49.939Z,0.80
2023-04-12T17:06:17.029Z,0.80
2023-04-12T17:08:44.808Z,1.10
2023-04-12T17:11:11.788Z,0.98
2023-04-12T17:13:38.579Z,0.70
2023-04-12T17:16:05.324Z,0.73
2023-04-12T17:18:31.954Z,0.95
2023-04-12T17:20:58.842Z,0.80
2023-04-12T17:23:25.428Z,0.80
2023-04-12T17:25:52.398Z,0.82
2023-04-12T17:28:19.349Z,1.00
2023-04-12T17:30:46.262Z,0.50
2023-04-12T17:33:12.756Z,0.70
2023-04-12T17:35:40.658Z,0.63
2023-04-12T17:38:07.339Z,0.85
2023-04-12T17:40:33.782Z,0.93
2023-04-12T17:43:00.371Z,0.90
2023-04-12T17:45:26.860Z,0.80
2023-04-12T17:47:54.448Z,2.00
2023-04-12T17:50:22.113Z,2.08
2023-04-12T17:52:48.917Z,1.90
2023-04-12T17:55:19.185Z,2.50
2023-04-12T17:57:45.581Z,2.33
2023-04-12T18:00:12.343Z,0.98
2023-04-12T18:02:43.604Z,0.98
2023-04-12T18:05:10.472Z,0.90
2023-04-12T18:07:37.118Z,0.77
2023-04-12T18:10:05.303Z,1.52
2023-04-12T18:12:32.618Z,1.88
2023-04-12T18:14:58.994Z,2.30
2023-04-12T18:17:26.584Z,2.10
2023-04-12T18:19:54.120Z,1.80
2023-04-12T18:22:20.540Z,1.77
2023-04-12T18:24:46.924Z,1.95
2023-04-12T18:27:13.831Z,1.63
2023-04-12T18:29:40.474Z,2.10
2023-04-12T18:32:07.181Z,2.08
2023-04-12T18:34:33.915Z,44.40
2023-04-12T18:37:00.378Z,98.75
2023-04-12T18:39:26.878Z,121.93
2023-04-12T18:41:53.288Z,77.50
2023-04-12T18:44:19.941Z,43.40
2023-04-12T18:46:46.406Z,16.33
2023-04-12T18:49:14.286Z,9.50
2023-04-12T18:51:42.573Z,16.65
2023-04-12T18:54:12.861Z,8.10
2023-04-12T18:56:42.081Z,5.20
2023-04-12T18:59:09.198Z,5.78
2023-04-12T19:01:35.632Z,5.90
2023-04-12T19:04:05.063Z,6.00
2023-04-12T19:06:32.060Z,4.10
2023-04-12T19:08:58.516Z,3.78
2023-04-12T19:11:26.466Z,3.30
2023-04-12T19:13:53.405Z,3.63
2023-04-12T19:16:19.823Z,3.30
2023-04-12T19:18:46.290Z,3.40
2023-04-12T19:21:12.936Z,3.40
2023-04-12T19:23:39.728Z,3.13
2023-04-12T19:26:06.337Z,3.55
2023-04-12T19:28:32.733Z,3.80
2023-04-12T19:30:59.423Z,3.90
2023-04-12T19:33:26.276Z,12.75
2023-04-12T19:35:55.709Z,9.73
2023-04-12T19:38:22.467Z,7.18
2023-04-12T19:40:50.745Z,5.40
2023-04-12T19:43:18.570Z,6.88
2023-04-12T19:45:45.091Z,6.15
2023-04-12T19:48:12.895Z,5.88
2023-04-12T19:50:39.674Z,3.72
2023-04-12T19:53:06.235Z,3.30
2023-04-12T19:55:32.644Z,2.92
2023-04-12T19:57:59.115Z,3.60
2023-04-12T20:00:27.192Z,3.17
2023-04-12T20:02:54.287Z,3.65
2023-04-12T20:05:22.344Z,4.63
2023-04-12T20:07:49.112Z,3.95
2023-04-12T20:10:16.075Z,1.95
2023-04-12T20:12:42.472Z,1.05
2023-04-12T20:15:14.302Z,1.13
2023-04-12T20:17:42.631Z,1.17
2023-04-12T20:20:10.792Z,0.90
2023-04-12T20:22:38.605Z,1.00
2023-04-12T20:25:05.524Z,0.82
2023-04-12T20:27:32.777Z,1.00
2023-04-12T20:30:00.252Z,0.90
2023-04-12T20:32:26.727Z,1.00
2023-04-12T20:34:53.166Z,0.70
2023-04-12T20:37:19.876Z,0.88
2023-04-12T20:39:46.261Z,0.85
2023-04-12T20:42:15.928Z,0.77
2023-04-12T20:44:42.359Z,0.98
2023-04-12T20:47:09.898Z,0.80
2023-04-12T20:49:36.359Z,1.30
2023-04-12T20:52:02.964Z,1.77
2023-04-12T20:54:30.137Z,2.65
2023-04-12T20:56:59.471Z,2.47
2023-04-12T20:59:30.172Z,1.83
2023-04-12T21:01:58.222Z,1.50
2023-04-12T21:04:27.654Z,1.50
2023-04-12T21:06:57.872Z,1.20
2023-04-12T21:09:24.542Z,1.00
2023-04-12T21:11:52.397Z,0.77
2023-04-12T21:14:19.908Z,1.10
2023-04-12T21:16:48.609Z,0.90
2023-04-12T21:19:18.489Z,1.10
2023-04-12T21:21:45.829Z,0.80
2023-04-12T21:24:13.053Z,0.88
2023-04-12T21:26:40.093Z,0.85
2023-04-12T21:29:06.504Z,0.68
2023-04-12T21:31:32.920Z,0.85
2023-04-12T21:33:59.717Z,0.85
2023-04-12T21:36:28.514Z,0.77
2023-04-12T21:38:55.817Z,1.00
2023-04-12T21:41:23.600Z,0.77
2023-04-12T21:43:50.136Z,0.90
2023-04-12T21:46:16.798Z,1.10
2023-04-12T21:48:43.574Z,1.30
2023-04-12T21:51:10.057Z,0.90
2023-04-12T21:53:36.598Z,1.58
2023-04-12T21:56:03.061Z,1.23
2023-04-12T21:58:29.954Z,1.27
2023-04-12T22:00:58.079Z,1.75
2023-04-12T22:03:24.895Z,2.30
2023-04-12T22:06:03.675Z,2.15
2023-04-12T22:08:32.981Z,1.67
2023-04-12T22:11:00.157Z,1.70
2023-04-12T22:13:27.138Z,1.60
2023-04-12T22:15:53.573Z,1.65
2023-04-12T22:18:20.463Z,1.85
2023-04-12T22:20:47.753Z,1.95
2023-04-12T22:23:17.699Z,2.08
2023-04-12T22:25:45.211Z,1.88
2023-04-12T22:28:12.152Z,1.85
2023-04-12T22:30:38.837Z,2.28
2023-04-12T22:33:05.635Z,1.80
2023-04-12T22:35:35.068Z,1.58
2023-04-12T22:38:02.024Z,1.80
2023-04-12T22:40:28.548Z,1.95
2023-04-12T22:42:55.932Z,1.40
2023-04-12T22:45:22.331Z,1.63
2023-04-12T22:47:48.773Z,1.45
2023-04-12T22:50:15.217Z,1.40
2023-04-12T22:52:42.072Z,1.35
2023-04-12T22:55:11.451Z,1.00
2023-04-12T22:57:38.712Z,1.30
2023-04-12T23:00:06.066Z,0.93
2023-04-12T23:02:33.843Z,0.88
2023-04-12T23:05:02.351Z,1.10
2023-04-12T23:07:30.082Z,0.90
2023-04-12T23:09:57.559Z,1.10
2023-04-12T23:12:24.678Z,0.70
2023-04-12T23:14:55.293Z,0.95
2023-04-12T23:17:21.764Z,1.33
2023-04-12T23:19:50.268Z,1.30
2023-04-12T23:22:44.288Z,1.80
2023-04-12T23:25:22.390Z,1.50
2023-04-12T23:27:49.991Z,1.38
2023-04-12T23:30:20.072Z,1.20
2023-04-12T23:32:46.484Z,0.95
2023-04-12T23:35:14.275Z,1.25
2023-04-12T23:37:41.515Z,0.90
2023-04-12T23:40:14.839Z,1.05
2023-04-12T23:45:10.637Z,1.00
2023-04-12T23:47:37.346Z,1.00
2023-04-12T23:50:06.347Z,0.73
2023-04-12T23:52:33.124Z,1.08
2023-04-12T23:54:59.974Z,0.80
2023-04-12T23:57:26.433Z,0.82
2023-04-12T23:59:52.852Z,0.90
